createdAt,value
2023-03-06T00:01:08.769Z,100.00
2023-03-06T00:03:35.438Z,100.00
2023-03-06T00:06:02.249Z,100.00
2023-03-06T00:08:29.128Z,100.00
2023-03-06T00:10:56.587Z,100.00
2023-03-06T00:13:23.843Z,100.00
2023-03-06T00:15:50.431Z,100.00
2023-03-06T00:18:16.984Z,100.00
2023-03-06T00:20:44.335Z,100.00
2023-03-06T00:23:11.485Z,100.00
2023-03-06T00:25:41.673Z,100.00
2023-03-06T00:28:09.374Z,100.00
2023-03-06T00:30:36.296Z,100.00
2023-03-06T00:33:02.799Z,100.00
2023-03-06T00:35:30.522Z,100.00
2023-03-06T00:37:59.588Z,100.00
2023-03-06T00:40:26.483Z,100.00
2023-03-06T00:42:53.120Z,100.00
2023-03-06T00:45:19.838Z,100.00
2023-03-06T00:47:46.594Z,100.00
2023-03-06T00:50:14.592Z,100.00
2023-03-06T00:52:41.970Z,100.00
2023-03-06T00:55:09.747Z,100.00
2023-03-06T00:57:36.538Z,100.00
2023-03-06T01:00:05.285Z,100.00
2023-03-06T01:02:31.947Z,100.00
2023-03-06T01:04:58.510Z,100.00
2023-03-06T01:07:27.208Z,100.00
2023-03-06T01:09:53.777Z,100.00
2023-03-06T01:12:23.405Z,100.00
2023-03-06T01:14:51.055Z,100.00
2023-03-06T01:17:17.737Z,100.00
2023-03-06T01:19:44.245Z,100.00
2023-03-06T01:22:13.362Z,100.00
2023-03-06T01:24:39.812Z,100.00
2023-03-06T01:27:06.436Z,100.00
2023-03-06T01:29:32.982Z,100.00
2023-03-06T01:31:59.578Z,100.00
2023-03-06T01:34:26.221Z,100.00
2023-03-06T01:36:53.808Z,100.00
2023-03-06T01:39:20.343Z,100.00
2023-03-06T01:41:47.285Z,100.00
2023-03-06T01:44:13.839Z,100.00
2023-03-06T01:46:42.906Z,100.00
2023-03-06T01:49:26.152Z,100.00
2023-03-06T01:51:57.474Z,100.00
2023-03-06T01:54:28.345Z,100.00
2023-03-06T01:57:02.221Z,100.00
2023-03-06T01:59:29.588Z,100.00
2023-03-06T02:01:58.397Z,100.00
2023-03-06T02:04:25.083Z,100.00
2023-03-06T02:06:51.839Z,100.00
2023-03-06T02:09:18.562Z,100.00
2023-03-06T02:11:46.227Z,100.00
2023-03-06T02:14:15.608Z,100.00
2023-03-06T02:16:42.847Z,100.00
2023-03-06T02:19:39.261Z,100.00
2023-03-06T02:22:05.956Z,100.00
2023-03-06T02:24:48.311Z,100.00
2023-03-06T02:27:15.850Z,100.00
2023-03-06T02:29:42.437Z,100.00
2023-03-06T02:32:09.643Z,100.00
2023-03-06T02:34:39.078Z,100.00
2023-03-06T02:37:09.829Z,100.00
2023-03-06T02:39:41.453Z,100.00
2023-03-06T02:42:08.811Z,100.00
2023-03-06T02:44:36.331Z,100.00
2023-03-06T02:47:02.806Z,100.00
2023-03-06T02:49:29.253Z,100.00
2023-03-06T02:51:55.673Z,100.00
2023-03-06T02:54:22.146Z,100.00
2023-03-06T02:56:49.462Z,100.00
2023-03-06T02:59:16.074Z,100.00
2023-03-06T03:01:42.673Z,100.00
2023-03-06T03:04:09.610Z,100.00
2023-03-06T03:06:37.231Z,100.00
2023-03-06T03:09:03.945Z,100.00
2023-03-06T03:11:30.553Z,100.00
2023-03-06T03:13:57.394Z,100.00
2023-03-06T03:16:26.305Z,100.00
2023-03-06T03:18:55.627Z,100.00
2023-03-06T03:21:23.077Z,100.00
2023-03-06T03:23:49.663Z,100.00
2023-03-06T03:26:19.385Z,100.00
2023-03-06T03:28:56.624Z,100.00
2023-03-06T03:31:23.308Z,100.00
2023-03-06T03:33:50.331Z,100.00
2023-03-06T03:36:18.483Z,100.00
2023-03-06T03:38:47.053Z,100.00
2023-03-06T03:41:14.366Z,100.00
2023-03-06T03:43:42.888Z,100.00
2023-03-06T03:46:09.700Z,100.00
2023-03-06T03:48:36.438Z,100.00
2023-03-06T03:51:09.041Z,100.00
2023-03-06T03:53:39.812Z,100.00
2023-03-06T03:56:08.434Z,100.00
2023-03-06T03:58:42.196Z,100.00
2023-03-06T04:01:08.747Z,100.00
2023-03-06T04:03:36.238Z,100.00
2023-03-06T04:06:04.073Z,100.00
2023-03-06T04:08:30.945Z,100.00
2023-03-06T04:10:57.575Z,100.00
2023-03-06T04:13:24.422Z,100.00
2023-03-06T04:15:54.478Z,100.00
2023-03-06T04:18:23.869Z,100.00
2023-03-06T04:20:52.793Z,100.00
2023-03-06T04:23:20.208Z,100.00
2023-03-06T04:25:46.904Z,100.00
2023-03-06T04:28:13.614Z,100.00
2023-03-06T04:30:40.259Z,100.00
2023-03-06T04:33:07.152Z,100.00
2023-03-06T04:35:34.092Z,100.00
2023-03-06T04:38:05.861Z,100.00
2023-03-06T04:40:35.512Z,100.00
2023-03-06T04:43:03.463Z,100.00
2023-03-06T04:45:31.313Z,100.00
2023-03-06T04:47:58.086Z,100.00
2023-03-06T04:50:25.993Z,100.00
2023-03-06T04:52:52.639Z,100.00
2023-03-06T04:55:19.782Z,100.00
2023-03-06T04:57:47.687Z,100.00
2023-03-06T05:00:20.746Z,100.00
2023-03-06T05:02:49.247Z,100.00
2023-03-06T05:05:16.939Z,100.00
2023-03-06T05:07:44.510Z,100.00
2023-03-06T05:10:15.749Z,100.00
2023-03-06T05:12:42.863Z,100.00
2023-03-06T05:15:11.000Z,100.00
2023-03-06T05:17:38.155Z,100.00
2023-03-06T05:20:06.958Z,100.00
2023-03-06T05:22:34.658Z,100.00
2023-03-06T05:25:01.205Z,100.00
2023-03-06T05:27:28.251Z,100.00
2023-03-06T05:29:54.799Z,100.00
2023-03-06T05:32:21.786Z,100.00
2023-03-06T05:34:49.223Z,100.00
2023-03-06T05:37:15.651Z,100.00
2023-03-06T05:39:42.553Z,100.00
2023-03-06T05:42:09.453Z,100.00
2023-03-06T05:44:36.640Z,100.00
2023-03-06T05:47:03.541Z,100.00
2023-03-06T05:49:34.610Z,100.00
2023-03-06T05:52:04.003Z,100.00
2023-03-06T05:54:34.746Z,100.00
2023-03-06T05:57:01.487Z,100.00
2023-03-06T05:59:29.056Z,100.00
2023-03-06T06:01:56.154Z,100.00
2023-03-06T06:04:24.197Z,100.00
2023-03-06T06:06:55.407Z,100.00
2023-03-06T06:09:24.810Z,100.00
2023-03-06T06:11:57.125Z,100.00
2023-03-06T06:14:23.637Z,100.00
2023-03-06T06:16:50.400Z,100.00
2023-03-06T06:19:20.409Z,100.00
2023-03-06T06:21:53.981Z,100.00
2023-03-06T06:24:22.661Z,100.00
2023-03-06T06:26:54.456Z,100.00
2023-03-06T06:29:22.247Z,100.00
2023-03-06T06:31:49.715Z,100.00
2023-03-06T06:34:16.400Z,100.00
2023-03-06T06:36:43.171Z,100.00
2023-03-06T06:39:10.986Z,100.00
2023-03-06T06:41:56.837Z,100.00
2023-03-06T06:44:23.978Z,100.00
2023-03-06T06:47:21.359Z,100.00
2023-03-06T06:49:37.788Z,100.00
2023-03-06T06:52:05.254Z,100.00
2023-03-06T06:54:32.869Z,100.00
2023-03-06T06:56:59.397Z,100.00
2023-03-06T06:59:26.097Z,100.00
2023-03-06T07:01:53.190Z,100.00
2023-03-06T07:04:20.141Z,100.00
2023-03-06T07:06:46.961Z,100.00
2023-03-06T07:09:14.108Z,100.00
2023-03-06T07:11:41.343Z,100.00
2023-03-06T07:14:07.994Z,100.00
2023-03-06T07:16:34.893Z,100.00
2023-03-06T07:19:01.480Z,100.00
2023-03-06T07:21:28.012Z,100.00
2023-03-06T07:23:57.172Z,100.00
2023-03-06T07:26:27.982Z,100.00
2023-03-06T07:28:54.924Z,100.00
2023-03-06T07:31:24.521Z,100.00
2023-03-06T07:33:52.402Z,100.00
2023-03-06T07:36:18.923Z,100.00
2023-03-06T07:38:45.440Z,100.00
2023-03-06T07:41:13.621Z,100.00
2023-03-06T07:43:41.291Z,100.00
2023-03-06T07:46:08.935Z,100.00
2023-03-06T07:48:37.131Z,100.00
2023-03-06T07:51:06.746Z,100.00
2023-03-06T07:53:34.093Z,100.00
2023-03-06T07:56:00.881Z,100.00
2023-03-06T07:58:27.455Z,100.00
2023-03-06T08:00:53.891Z,100.00
2023-03-06T08:03:20.347Z,100.00
2023-03-06T08:05:46.881Z,100.00
2023-03-06T08:08:13.352Z,100.00
2023-03-06T08:10:39.846Z,100.00
2023-03-06T08:13:06.362Z,100.00
2023-03-06T08:15:32.808Z,100.00
2023-03-06T08:17:59.327Z,100.00
2023-03-06T08:20:25.859Z,100.00
2023-03-06T08:22:52.322Z,100.00
2023-03-06T08:25:18.762Z,100.00
2023-03-06T08:27:47.325Z,100.00
2023-03-06T08:30:14.669Z,100.00
2023-03-06T08:32:41.243Z,100.00
2023-03-06T08:35:08.271Z,100.00
2023-03-06T08:37:34.817Z,100.00
2023-03-06T08:40:04.444Z,100.00
2023-03-06T08:42:31.990Z,100.00
2023-03-06T08:44:58.471Z,100.00
2023-03-06T08:47:24.945Z,100.00
2023-03-06T08:49:51.406Z,100.00
2023-03-06T08:52:19.742Z,100.00
2023-03-06T08:54:46.451Z,100.00
2023-03-06T08:57:12.882Z,100.00
2023-03-06T08:59:39.435Z,100.00
2023-03-06T09:02:07.523Z,100.00
2023-03-06T09:04:34.260Z,100.00
2023-03-06T09:07:00.992Z,100.00
2023-03-06T09:09:27.548Z,100.00
2023-03-06T09:11:54.847Z,100.00
2023-03-06T09:14:21.630Z,100.00
2023-03-06T09:16:48.104Z,100.00
2023-03-06T09:19:14.649Z,100.00
2023-03-06T09:21:41.904Z,100.00
2023-03-06T09:24:08.699Z,100.00
2023-03-06T09:26:45.613Z,100.00
2023-03-06T09:29:13.354Z,100.00
2023-03-06T09:31:39.880Z,100.00
2023-03-06T09:34:06.349Z,100.00
2023-03-06T09:36:42.796Z,100.00
2023-03-06T09:39:15.992Z,100.00
2023-03-06T09:41:42.600Z,100.00
2023-03-06T09:44:17.843Z,100.00
2023-03-06T09:47:00.315Z,100.00
2023-03-06T09:49:46.065Z,100.00
2023-03-06T09:52:26.335Z,98.45
2023-03-06T09:55:09.048Z,100.00
2023-03-06T09:57:40.844Z,100.00
2023-03-06T10:00:30.051Z,93.52
2023-03-06T10:03:15.248Z,93.05
2023-03-06T10:05:50.259Z,94.36
2023-03-06T10:08:26.125Z,95.69
2023-03-06T10:11:05.526Z,96.18
2023-03-06T10:13:43.395Z,96.79
2023-03-06T10:16:29.176Z,100.00
2023-03-06T10:19:05.209Z,91.32
2023-03-06T10:21:56.161Z,88.69
2023-03-06T10:24:30.390Z,88.50
2023-03-06T10:27:03.936Z,90.25
2023-03-06T10:30:01.736Z,83.95
2023-03-06T10:32:49.090Z,88.40
2023-03-06T10:35:21.579Z,91.86
2023-03-06T10:37:51.201Z,90.14
2023-03-06T10:40:22.518Z,88.54
2023-03-06T10:42:54.017Z,93.45
2023-03-06T10:45:29.936Z,92.97
2023-03-06T10:48:11.972Z,93.14
2023-03-06T10:50:38.513Z,86.72
2023-03-06T10:53:15.158Z,90.69
2023-03-06T10:55:52.427Z,87.00
2023-03-06T10:58:23.373Z,85.17
2023-03-06T11:01:06.792Z,89.11
2023-03-06T11:03:35.156Z,90.28
2023-03-06T11:06:13.876Z,89.28
2023-03-06T11:08:42.985Z,87.61
2023-03-06T11:11:18.542Z,89.62
2023-03-06T11:13:58.849Z,88.94
2023-03-06T11:16:30.601Z,88.29
2023-03-06T11:19:03.936Z,90.34
2023-03-06T11:21:34.052Z,91.22
2023-03-06T11:24:05.679Z,88.53
2023-03-06T11:26:46.703Z,85.87
2023-03-06T11:29:27.084Z,90.43
2023-03-06T11:32:34.973Z,89.10
2023-03-06T11:35:06.928Z,85.48
2023-03-06T11:37:45.622Z,83.98
2023-03-06T11:40:15.254Z,83.99
2023-03-06T11:43:26.837Z,89.50
2023-03-06T11:46:15.314Z,85.13
2023-03-06T11:48:46.488Z,89.40
2023-03-06T11:51:21.984Z,86.20
2023-03-06T11:53:48.767Z,87.69
2023-03-06T11:56:18.297Z,89.36
2023-03-06T11:59:07.652Z,90.07
2023-03-06T12:01:49.358Z,92.08
2023-03-06T12:04:58.106Z,90.29
2023-03-06T12:07:31.091Z,89.97
2023-03-06T12:10:10.040Z,85.93
2023-03-06T12:12:55.587Z,85.43
2023-03-06T12:15:31.093Z,86.13
2023-03-06T12:18:15.830Z,88.82
2023-03-06T12:21:00.353Z,91.99
2023-03-06T12:24:13.595Z,86.17
2023-03-06T12:27:01.834Z,85.07
2023-03-06T12:29:52.300Z,83.08
2023-03-06T12:33:10.870Z,83.71
2023-03-06T12:35:57.828Z,90.39
2023-03-06T12:38:33.392Z,86.89
2023-03-06T12:41:14.119Z,89.68
2023-03-06T12:44:05.543Z,83.04
2023-03-06T12:46:39.542Z,87.36
2023-03-06T12:49:23.010Z,83.07
2023-03-06T12:51:59.421Z,88.46
2023-03-06T12:54:29.957Z,87.21
2023-03-06T12:56:59.116Z,82.07
2023-03-06T12:59:53.618Z,84.30
2023-03-06T13:02:54.192Z,85.89
2023-03-06T13:05:32.795Z,91.25
2023-03-06T13:08:17.879Z,89.45
2023-03-06T13:11:03.576Z,89.87
2023-03-06T13:13:42.748Z,86.96
2023-03-06T13:16:32.236Z,89.11
2023-03-06T13:19:03.773Z,86.49
2023-03-06T13:21:42.444Z,89.13
2023-03-06T13:24:22.235Z,85.18
2023-03-06T13:26:51.796Z,84.87
2023-03-06T13:29:36.700Z,82.78
2023-03-06T13:32:04.371Z,86.33
2023-03-06T13:34:42.062Z,83.10
2023-03-06T13:37:18.365Z,85.90
2023-03-06T13:39:53.978Z,82.72
2023-03-06T13:42:37.933Z,83.19
2023-03-06T13:45:14.642Z,87.04
2023-03-06T13:48:19.558Z,85.74
2023-03-06T13:50:46.369Z,88.41
2023-03-06T13:53:46.359Z,84.37
2023-03-06T13:56:36.680Z,88.16
2023-03-06T13:59:39.333Z,84.25
2023-03-06T14:02:11.407Z,88.09
2023-03-06T14:04:54.685Z,88.63
2023-03-06T14:07:32.132Z,91.62
2023-03-06T14:10:13.938Z,88.50
2023-03-06T14:13:12.886Z,91.22
2023-03-06T14:15:54.685Z,92.31
2023-03-06T14:18:44.314Z,86.97
2023-03-06T14:21:13.459Z,90.07
2023-03-06T14:23:44.984Z,89.92
2023-03-06T14:26:17.351Z,90.09
2023-03-06T14:28:45.920Z,88.60
2023-03-06T14:31:21.273Z,89.01
2023-03-06T14:33:54.176Z,85.19
2023-03-06T14:36:24.185Z,87.46
2023-03-06T14:38:57.342Z,87.82
2023-03-06T14:41:30.170Z,87.33
2023-03-06T14:44:11.894Z,81.41
2023-03-06T14:46:38.497Z,83.98
2023-03-06T14:49:09.005Z,87.73
2023-03-06T14:51:42.802Z,86.60
2023-03-06T14:54:25.929Z,80.63
2023-03-06T14:56:57.592Z,84.27
2023-03-06T14:59:29.838Z,87.60
2023-03-06T15:02:00.752Z,83.21
2023-03-06T15:04:55.268Z,82.63
2023-03-06T15:07:30.294Z,82.77
2023-03-06T15:09:57.961Z,84.97
2023-03-06T15:12:24.424Z,84.68
2023-03-06T15:15:00.231Z,83.26
2023-03-06T15:17:43.439Z,81.46
2023-03-06T15:20:42.626Z,84.24
2023-03-06T15:23:16.023Z,81.98
2023-03-06T15:25:52.015Z,83.92
2023-03-06T15:28:30.653Z,82.81
2023-03-06T15:31:17.374Z,83.84
2023-03-06T15:33:44.299Z,82.56
2023-03-06T15:36:20.921Z,78.27
2023-03-06T15:38:47.810Z,82.01
2023-03-06T15:41:31.897Z,82.93
2023-03-06T15:44:00.421Z,82.39
2023-03-06T15:46:27.569Z,81.13
2023-03-06T15:49:01.090Z,81.23
2023-03-06T15:51:29.363Z,80.96
2023-03-06T15:54:09.870Z,81.45
2023-03-06T15:56:43.956Z,79.22
2023-03-06T15:59:25.073Z,77.71
2023-03-06T16:01:52.320Z,79.13
2023-03-06T16:04:19.719Z,76.60
2023-03-06T16:06:46.369Z,76.21
2023-03-06T16:09:13.934Z,76.09
2023-03-06T16:11:46.756Z,76.14
2023-03-06T16:14:23.611Z,78.61
2023-03-06T16:16:51.992Z,78.43
2023-03-06T16:19:27.095Z,74.89
2023-03-06T16:21:55.567Z,78.22
2023-03-06T16:24:22.457Z,79.85
2023-03-06T16:26:51.454Z,76.72
2023-03-06T16:29:21.593Z,77.31
2023-03-06T16:31:48.603Z,77.29
2023-03-06T16:34:15.958Z,75.92
2023-03-06T16:36:42.597Z,75.07
2023-03-06T16:39:14.446Z,76.24
2023-03-06T16:41:40.963Z,75.82
2023-03-06T16:44:32.488Z,76.97
2023-03-06T16:47:00.816Z,77.60
2023-03-06T16:49:27.707Z,75.27
2023-03-06T16:51:54.594Z,77.24
2023-03-06T16:54:23.152Z,73.84
2023-03-06T16:56:49.896Z,76.46
2023-03-06T16:59:16.367Z,77.03
2023-03-06T17:01:43.262Z,77.88
2023-03-06T17:04:10.725Z,76.89
2023-03-06T17:06:37.915Z,78.74
2023-03-06T17:09:04.691Z,77.75
2023-03-06T17:11:31.230Z,79.00
2023-03-06T17:13:57.836Z,78.56
2023-03-06T17:16:24.405Z,79.44
2023-03-06T17:18:50.933Z,78.86
2023-03-06T17:21:17.498Z,80.46
2023-03-06T17:23:44.531Z,80.38
2023-03-06T17:26:14.008Z,80.04
2023-03-06T17:28:42.222Z,79.90
2023-03-06T17:31:13.021Z,80.63
2023-03-06T17:33:39.864Z,81.23
2023-03-06T17:36:06.823Z,81.98
2023-03-06T17:38:33.393Z,81.87
2023-03-06T17:41:04.598Z,82.71
2023-03-06T17:43:31.576Z,83.08
2023-03-06T17:46:02.345Z,84.45
2023-03-06T17:48:29.056Z,84.89
2023-03-06T17:50:56.001Z,84.39
2023-03-06T17:53:23.158Z,85.01
2023-03-06T17:55:49.715Z,82.79
2023-03-06T17:58:16.287Z,83.18
2023-03-06T18:00:43.512Z,84.05
2023-03-06T18:03:10.208Z,84.22
2023-03-06T18:05:36.943Z,83.33
2023-03-06T18:08:03.562Z,85.24
2023-03-06T18:10:30.014Z,83.76
2023-03-06T18:12:56.715Z,85.03
2023-03-06T18:15:23.394Z,85.31
2023-03-06T18:17:50.116Z,83.19
2023-03-06T18:20:17.001Z,85.43
2023-03-06T18:22:43.462Z,84.12
2023-03-06T18:25:10.035Z,83.40
2023-03-06T18:27:37.190Z,84.42
2023-03-06T18:30:04.746Z,85.08
2023-03-06T18:32:31.549Z,85.00
2023-03-06T18:34:58.120Z,85.32
2023-03-06T18:37:24.659Z,84.23
2023-03-06T18:39:51.202Z,85.05
2023-03-06T18:42:18.390Z,84.86
2023-03-06T18:44:47.763Z,84.56
2023-03-06T18:47:15.508Z,84.46
2023-03-06T18:49:44.177Z,84.07
2023-03-06T18:52:12.166Z,84.90
2023-03-06T18:54:38.892Z,84.80
2023-03-06T18:57:05.475Z,81.83
2023-03-06T18:59:32.022Z,83.58
2023-03-06T19:01:59.306Z,83.21
2023-03-06T19:04:27.005Z,84.00
2023-03-06T19:06:54.710Z,83.59
2023-03-06T19:09:22.249Z,83.09
2023-03-06T19:11:49.579Z,83.81
2023-03-06T19:14:16.640Z,81.46
2023-03-06T19:16:43.305Z,82.57
2023-03-06T19:19:10.036Z,83.81
2023-03-06T19:21:36.624Z,84.00
2023-03-06T19:24:03.371Z,83.45
2023-03-06T19:26:29.926Z,84.07
2023-03-06T19:28:56.433Z,84.75
2023-03-06T19:31:25.987Z,84.69
2023-03-06T19:33:53.742Z,85.58
2023-03-06T19:36:23.751Z,85.59
2023-03-06T19:38:57.284Z,86.64
2023-03-06T19:41:24.330Z,85.85
2023-03-06T19:43:53.707Z,85.89
2023-03-06T19:46:21.339Z,86.46
2023-03-06T19:48:48.942Z,86.73
2023-03-06T19:51:15.448Z,87.25
2023-03-06T19:53:41.978Z,89.19
2023-03-06T20:00:26.890Z,88.64
2023-03-06T20:02:53.372Z,88.32
2023-03-06T20:05:20.083Z,86.00
2023-03-06T20:07:46.648Z,87.10
2023-03-06T20:10:13.203Z,88.13
2023-03-06T20:12:39.818Z,87.83
2023-03-06T20:15:07.409Z,87.65
2023-03-06T20:17:34.561Z,87.27
2023-03-06T20:20:01.940Z,88.67
2023-03-06T20:22:28.444Z,88.88
2023-03-06T20:24:54.998Z,89.41
2023-03-06T20:27:21.541Z,89.95
2023-03-06T20:29:48.071Z,90.49
2023-03-06T20:32:14.645Z,91.64
2023-03-06T20:34:41.220Z,91.23
2023-03-06T20:37:09.590Z,90.56
2023-03-06T20:39:37.289Z,91.21
2023-03-06T20:42:14.311Z,91.10
2023-03-06T20:44:40.985Z,90.78
2023-03-06T20:47:08.856Z,91.46
2023-03-06T20:49:36.758Z,91.14
2023-03-06T20:52:03.584Z,91.09
2023-03-06T20:54:30.168Z,92.10
2023-03-06T20:56:56.760Z,91.38
2023-03-06T20:59:23.797Z,90.92
2023-03-06T21:01:50.352Z,91.47
2023-03-06T21:04:17.256Z,91.77
2023-03-06T21:06:46.665Z,91.49
2023-03-06T21:09:15.854Z,91.82
2023-03-06T21:14:24.216Z,93.22
2023-03-06T21:17:47.587Z,93.90
2023-03-06T21:20:15.138Z,92.79
2023-03-06T21:22:41.655Z,93.62
2023-03-06T21:25:12.742Z,93.00
2023-03-06T21:28:01.280Z,92.31
2023-03-06T21:30:30.478Z,91.61
2023-03-06T21:32:56.977Z,92.58
2023-03-06T21:35:23.578Z,93.74
2023-03-06T21:37:50.320Z,92.84
2023-03-06T21:40:17.088Z,94.08
2023-03-06T21:42:45.926Z,94.06
2023-03-06T21:45:12.633Z,93.86
2023-03-06T21:47:42.181Z,93.35
2023-03-06T21:50:10.974Z,94.24
2023-03-06T21:52:37.593Z,94.56
2023-03-06T21:55:04.533Z,94.02
2023-03-06T21:57:31.109Z,94.04
2023-03-06T21:59:57.748Z,93.86
2023-03-06T22:02:24.238Z,94.03
2023-03-06T22:04:52.499Z,94.69
2023-03-06T22:07:19.915Z,93.79
2023-03-06T22:09:47.243Z,95.10
2023-03-06T22:12:16.263Z,94.73
2023-03-06T22:14:45.831Z,94.37
2023-03-06T22:17:12.441Z,95.11
2023-03-06T22:19:39.295Z,95.73
2023-03-06T22:22:05.808Z,96.25
2023-03-06T22:24:32.299Z,96.42
2023-03-06T22:26:58.788Z,96.84
2023-03-06T22:29:25.705Z,95.94
2023-03-06T22:31:52.763Z,94.21
2023-03-06T22:34:19.335Z,95.91
2023-03-06T22:36:45.873Z,96.81
2023-03-06T22:39:13.182Z,96.67
2023-03-06T22:41:39.845Z,97.54
2023-03-06T22:44:06.407Z,98.29
2023-03-06T22:46:33.087Z,99.15
2023-03-06T22:49:00.308Z,98.89
2023-03-06T22:51:28.036Z,98.71
2023-03-06T22:53:54.492Z,99.28
2023-03-06T22:56:21.833Z,98.58
2023-03-06T22:58:48.481Z,99.04
2023-03-06T23:01:18.300Z,99.47
2023-03-06T23:03:47.764Z,99.30
2023-03-06T23:06:21.245Z,99.31
2023-03-06T23:08:54.428Z,100.00
2023-03-06T23:11:22.637Z,100.00
2023-03-06T23:14:08.172Z,98.98
2023-03-06T23:16:53.175Z,100.00
2023-03-06T23:19:38.623Z,100.00
2023-03-06T23:22:23.756Z,99.54
2023-03-06T23:25:09.209Z,99.88
2023-03-06T23:27:36.407Z,99.01
2023-03-06T23:30:08.902Z,99.82
2023-03-06T23:32:35.580Z,99.49
2023-03-06T23:35:02.118Z,99.55
2023-03-06T23:37:28.628Z,100.00
2023-03-06T23:39:55.401Z,100.00
2023-03-06T23:42:22.597Z,100.00
2023-03-06T23:44:49.161Z,100.00
2023-03-06T23:47:17.162Z,100.00
2023-03-06T23:49:43.694Z,100.00
2023-03-06T23:52:10.191Z,100.00
2023-03-06T23:54:36.718Z,100.00
2023-03-06T23:57:10.557Z,100.00
2023-03-06T23:59:37.267Z,100.00
